March ARB Airport
KRIV : now visible

Airfield :











YOU CAN JOIN US ON...

 
LOGIN :

Register | Disclaimer

   EN    FR    IT 

 









Legend :    VFR   Marginal VFR   IFR   Intensive IFR   Very Intensive IFR
Visi :
Ceiling :
>= 8 km
>= 3000ft
5 to 8 km
1000 to 3000 ft
1500m to 5 km
500 to 1000 ft
800 to 1500m
200 to 500 ft
< 800m
< 200 ft
Symbols :   Thunderstorms  Fog  Heavy snow  Heavy precipitations  Wind > 20 kt






- Airport Elevation : 1536 ft


KRIV - March ARB

CURRENT METAR :
  • 172058Z AUTO 00000KT 10SM CLR 22/02 A2990 RMK AO2 SLP122 T02180020 57023

EXPIRED METARs :
  • 171958Z AUTO 00000KT 10SM CLR 20/00 A2993 RMK AO2 SLP133 T02040002
  • 171858Z AUTO 00000KT 10SM CLR 19/01 A2996 RMK AO2 SLP142 T01850010

TAF TAF KRIV
Valid from the 17 at 20:00 until the 19 at 02:00 UTC


172004Z 1720/1902 34004KT 9999 FEW250 QNH2991INS
BECMG 1720/1721 33009KT 9999 SCT250 QNH2985INS
TEMPO 1722/1801 33012G18KT
BECMG 1803/1804 VRB03KT 9999 SCT250 QNH2991INS
BECMG 1816/1817 10006KT 9999 FEW150 BKN250 QNH2995INS
BECMG 1821/1822 32009KT 9999 SCT150 BKN250 QNH2992INS
TEMPO 1822/1901 32010G15KT TX23/1722Z TN02/1814Z



MET'MAP, your aeronautical weather chart ! - Copyright ORBIFLY December 2007 - Disclaimer

ORBIFLY MET'MAP TEAM :

Programming & Development : Alexandra Zaïnal
Concept & original design : Baudouin d'Aumeries
Assistance for programming : Marc-Olivier Méhu
Technical & hardware support : Manuel Goepfert

Contact : metmap@orbifly.com




SOURCES & CREDITS :

   NOAA       Earth
Advisory